sensor_id;sensor_type;location;lat;lon;timestamp;P1;durP1;ratioP1;P2;durP2;ratioP2
11283;SDS011;5698;47.332;11.180;2023-03-26T00:01:36;1.03;;;0.50;;
11283;SDS011;5698;47.332;11.180;2023-03-26T00:04:03;0.50;;;0.50;;
11283;SDS011;5698;47.332;11.180;2023-03-26T00:06:32;0.43;;;0.43;;
11283;SDS011;5698;47.332;11.180;2023-03-26T00:09:03;0.77;;;0.60;;
11283;SDS011;5698;47.332;11.180;2023-03-26T00:11:33;0.50;;;0.50;;
11283;SDS011;5698;47.332;11.180;2023-03-26T00:14:00;0.50;;;0.50;;
11283;SDS011;5698;47.332;11.180;2023-03-26T00:16:28;0.50;;;0.50;;
11283;SDS011;5698;47.332;11.180;2023-03-26T00:18:56;0.83;;;0.53;;
11283;SDS011;5698;47.332;11.180;2023-03-26T00:21:25;0.50;;;0.50;;
11283;SDS011;5698;47.332;11.180;2023-03-26T00:23:54;0.73;;;0.60;;
11283;SDS011;5698;47.332;11.180;2023-03-26T00:26:23;1.17;;;0.60;;
11283;SDS011;5698;47.332;11.180;2023-03-26T00:28:52;0.80;;;0.80;;
11283;SDS011;5698;47.332;11.180;2023-03-26T00:31:18;1.60;;;0.60;;
11283;SDS011;5698;47.332;11.180;2023-03-26T00:33:46;0.50;;;0.40;;
11283;SDS011;5698;47.332;11.180;2023-03-26T00:36:13;0.43;;;0.43;;
11283;SDS011;5698;47.332;11.180;2023-03-26T00:38:44;1.13;;;0.50;;
11283;SDS011;5698;47.332;11.180;2023-03-26T00:41:13;0.50;;;0.50;;
11283;SDS011;5698;47.332;11.180;2023-03-26T00:43:49;0.87;;;0.63;;
11283;SDS011;5698;47.332;11.180;2023-03-26T00:46:20;0.57;;;0.57;;
11283;SDS011;5698;47.332;11.180;2023-03-26T00:48:47;0.60;;;0.60;;
11283;SDS011;5698;47.332;11.180;2023-03-26T00:51:17;0.60;;;0.47;;
11283;SDS011;5698;47.332;11.180;2023-03-26T00:53:46;0.73;;;0.70;;
11283;SDS011;5698;47.332;11.180;2023-03-26T00:56:14;1.13;;;0.70;;
11283;SDS011;5698;47.332;11.180;2023-03-26T00:58:42;1.17;;;0.53;;
11283;SDS011;5698;47.332;11.180;2023-03-26T01:01:12;0.40;;;0.40;;
11283;SDS011;5698;47.332;11.180;2023-03-26T01:03:41;0.40;;;0.40;;
11283;SDS011;5698;47.332;11.180;2023-03-26T01:06:11;0.40;;;0.40;;
11283;SDS011;5698;47.332;11.180;2023-03-26T01:08:44;0.70;;;0.50;;
11283;SDS011;5698;47.332;11.180;2023-03-26T01:11:14;0.50;;;0.50;;
11283;SDS011;5698;47.332;11.180;2023-03-26T01:13:45;0.77;;;0.50;;
11283;SDS011;5698;47.332;11.180;2023-03-26T01:16:16;1.10;;;0.60;;
11283;SDS011;5698;47.332;11.180;2023-03-26T01:18:48;0.50;;;0.50;;
11283;SDS011;5698;47.332;11.180;2023-03-26T01:21:18;0.50;;;0.50;;
11283;SDS011;5698;47.332;11.180;2023-03-26T01:23:49;0.80;;;0.50;;
11283;SDS011;5698;47.332;11.180;2023-03-26T01:26:29;0.60;;;0.60;;
11283;SDS011;5698;47.332;11.180;2023-03-26T01:29:07;0.70;;;0.70;;
11283;SDS011;5698;47.332;11.180;2023-03-26T01:31:43;1.27;;;0.70;;
11283;SDS011;5698;47.332;11.180;2023-03-26T01:34:20;0.70;;;0.60;;
11283;SDS011;5698;47.332;11.180;2023-03-26T01:36:55;1.10;;;0.67;;
11283;SDS011;5698;47.332;11.180;2023-03-26T01:39:32;1.47;;;0.50;;
11283;SDS011;5698;47.332;11.180;2023-03-26T01:42:05;0.70;;;0.50;;
11283;SDS011;5698;47.332;11.180;2023-03-26T01:44:37;1.40;;;0.57;;
11283;SDS011;5698;47.332;11.180;2023-03-26T01:47:09;1.20;;;0.70;;
11283;SDS011;5698;47.332;11.180;2023-03-26T01:49:37;0.50;;;0.50;;
11283;SDS011;5698;47.332;11.180;2023-03-26T01:52:05;0.40;;;0.40;;
11283;SDS011;5698;47.332;11.180;2023-03-26T01:54:39;0.83;;;0.40;;
11283;SDS011;5698;47.332;11.180;2023-03-26T01:57:08;0.67;;;0.60;;
11283;SDS011;5698;47.332;11.180;2023-03-26T01:59:53;1.13;;;0.60;;
11283;SDS011;5698;47.332;11.180;2023-03-26T02:02:35;0.47;;;0.47;;
11283;SDS011;5698;47.332;11.180;2023-03-26T02:05:11;0.43;;;0.43;;
11283;SDS011;5698;47.332;11.180;2023-03-26T02:07:44;0.50;;;0.50;;
11283;SDS011;5698;47.332;11.180;2023-03-26T02:10:19;0.43;;;0.43;;
11283;SDS011;5698;47.332;11.180;2023-03-26T02:12:50;0.60;;;0.60;;
11283;SDS011;5698;47.332;11.180;2023-03-26T02:15:18;1.37;;;0.50;;
11283;SDS011;5698;47.332;11.180;2023-03-26T02:17:45;0.87;;;0.60;;
11283;SDS011;5698;47.332;11.180;2023-03-26T02:20:14;1.70;;;0.90;;
11283;SDS011;5698;47.332;11.180;2023-03-26T02:22:43;0.47;;;0.47;;
11283;SDS011;5698;47.332;11.180;2023-03-26T02:25:12;0.63;;;0.60;;
11283;SDS011;5698;47.332;11.180;2023-03-26T02:27:42;0.70;;;0.70;;
11283;SDS011;5698;47.332;11.180;2023-03-26T02:30:11;0.70;;;0.50;;
11283;SDS011;5698;47.332;11.180;2023-03-26T02:32:39;1.70;;;0.70;;
11283;SDS011;5698;47.332;11.180;2023-03-26T02:35:08;0.80;;;0.57;;
11283;SDS011;5698;47.332;11.180;2023-03-26T02:37:36;1.40;;;0.60;;
11283;SDS011;5698;47.332;11.180;2023-03-26T02:40:03;0.50;;;0.50;;
11283;SDS011;5698;47.332;11.180;2023-03-26T02:42:35;0.43;;;0.40;;
11283;SDS011;5698;47.332;11.180;2023-03-26T02:45:04;0.80;;;0.80;;
11283;SDS011;5698;47.332;11.180;2023-03-26T02:47:32;0.80;;;0.60;;
11283;SDS011;5698;47.332;11.180;2023-03-26T02:49:59;0.47;;;0.47;;
11283;SDS011;5698;47.332;11.180;2023-03-26T02:52:27;0.60;;;0.50;;
11283;SDS011;5698;47.332;11.180;2023-03-26T02:54:54;0.50;;;0.50;;
11283;SDS011;5698;47.332;11.180;2023-03-26T02:57:22;0.53;;;0.50;;
11283;SDS011;5698;47.332;11.180;2023-03-26T02:59:49;1.07;;;0.80;;
11283;SDS011;5698;47.332;11.180;2023-03-26T03:02:18;1.47;;;0.50;;
11283;SDS011;5698;47.332;11.180;2023-03-26T03:04:46;0.53;;;0.50;;
11283;SDS011;5698;47.332;11.180;2023-03-26T03:07:13;1.83;;;0.70;;
11283;SDS011;5698;47.332;11.180;2023-03-26T03:09:40;0.73;;;0.50;;
11283;SDS011;5698;47.332;11.180;2023-03-26T03:12:07;1.23;;;0.50;;
11283;SDS011;5698;47.332;11.180;2023-03-26T03:14:34;0.43;;;0.43;;
11283;SDS011;5698;47.332;11.180;2023-03-26T03:17:02;0.70;;;0.50;;
11283;SDS011;5698;47.332;11.180;2023-03-26T03:19:30;0.90;;;0.67;;
11283;SDS011;5698;47.332;11.180;2023-03-26T03:21:57;0.63;;;0.63;;
11283;SDS011;5698;47.332;11.180;2023-03-26T03:24:24;1.30;;;0.40;;
11283;SDS011;5698;47.332;11.180;2023-03-26T03:26:51;0.60;;;0.50;;
11283;SDS011;5698;47.332;11.180;2023-03-26T03:29:20;0.70;;;0.60;;
11283;SDS011;5698;47.332;11.180;2023-03-26T03:31:48;0.50;;;0.50;;
11283;SDS011;5698;47.332;11.180;2023-03-26T03:34:15;0.60;;;0.60;;
11283;SDS011;5698;47.332;11.180;2023-03-26T03:36:43;0.53;;;0.53;;
11283;SDS011;5698;47.332;11.180;2023-03-26T03:39:12;2.47;;;0.80;;
11283;SDS011;5698;47.332;11.180;2023-03-26T03:41:39;1.57;;;0.63;;
11283;SDS011;5698;47.332;11.180;2023-03-26T03:44:06;0.80;;;0.60;;
11283;SDS011;5698;47.332;11.180;2023-03-26T03:46:33;0.77;;;0.60;;
11283;SDS011;5698;47.332;11.180;2023-03-26T03:49:01;0.50;;;0.50;;
11283;SDS011;5698;47.332;11.180;2023-03-26T03:51:28;0.93;;;0.70;;
11283;SDS011;5698;47.332;11.180;2023-03-26T03:53:56;0.70;;;0.70;;
11283;SDS011;5698;47.332;11.180;2023-03-26T03:56:23;1.43;;;0.80;;
11283;SDS011;5698;47.332;11.180;2023-03-26T03:58:50;1.30;;;0.70;;
11283;SDS011;5698;47.332;11.180;2023-03-26T04:01:17;0.50;;;0.50;;
11283;SDS011;5698;47.332;11.180;2023-03-26T04:03:47;1.63;;;0.60;;
11283;SDS011;5698;47.332;11.180;2023-03-26T04:06:15;0.50;;;0.50;;
11283;SDS011;5698;47.332;11.180;2023-03-26T04:08:43;0.83;;;0.60;;
11283;SDS011;5698;47.332;11.180;2023-03-26T04:11:12;0.93;;;0.67;;
11283;SDS011;5698;47.332;11.180;2023-03-26T04:13:40;1.10;;;0.90;;
11283;SDS011;5698;47.332;11.180;2023-03-26T04:16:07;3.00;;;0.80;;
11283;SDS011;5698;47.332;11.180;2023-03-26T04:18:35;0.60;;;0.60;;
11283;SDS011;5698;47.332;11.180;2023-03-26T04:21:02;0.90;;;0.67;;
11283;SDS011;5698;47.332;11.180;2023-03-26T04:23:31;0.73;;;0.70;;
11283;SDS011;5698;47.332;11.180;2023-03-26T04:26:00;0.83;;;0.60;;
11283;SDS011;5698;47.332;11.180;2023-03-26T04:28:31;1.70;;;0.67;;
11283;SDS011;5698;47.332;11.180;2023-03-26T04:31:07;1.97;;;0.80;;
11283;SDS011;5698;47.332;11.180;2023-03-26T04:33:37;0.70;;;0.63;;
11283;SDS011;5698;47.332;11.180;2023-03-26T04:36:05;0.80;;;0.80;;
11283;SDS011;5698;47.332;11.180;2023-03-26T04:38:35;0.53;;;0.50;;
11283;SDS011;5698;47.332;11.180;2023-03-26T04:41:06;2.83;;;0.63;;
11283;SDS011;5698;47.332;11.180;2023-03-26T04:43:36;1.30;;;0.60;;
11283;SDS011;5698;47.332;11.180;2023-03-26T04:46:06;0.60;;;0.60;;
11283;SDS011;5698;47.332;11.180;2023-03-26T04:48:34;0.67;;;0.67;;
11283;SDS011;5698;47.332;11.180;2023-03-26T04:51:02;0.60;;;0.60;;
11283;SDS011;5698;47.332;11.180;2023-03-26T04:53:31;0.57;;;0.57;;
11283;SDS011;5698;47.332;11.180;2023-03-26T04:56:00;1.27;;;0.63;;
11283;SDS011;5698;47.332;11.180;2023-03-26T04:58:32;0.90;;;0.67;;
11283;SDS011;5698;47.332;11.180;2023-03-26T05:01:01;0.70;;;0.70;;
11283;SDS011;5698;47.332;11.180;2023-03-26T05:03:29;1.73;;;0.70;;
11283;SDS011;5698;47.332;11.180;2023-03-26T05:05:57;0.77;;;0.77;;
11283;SDS011;5698;47.332;11.180;2023-03-26T05:08:26;1.00;;;0.60;;
11283;SDS011;5698;47.332;11.180;2023-03-26T05:10:54;1.70;;;0.60;;
11283;SDS011;5698;47.332;11.180;2023-03-26T05:13:21;0.60;;;0.60;;
11283;SDS011;5698;47.332;11.180;2023-03-26T05:15:48;0.70;;;0.70;;
11283;SDS011;5698;47.332;11.180;2023-03-26T05:18:17;1.77;;;0.70;;
11283;SDS011;5698;47.332;11.180;2023-03-26T05:20:44;0.60;;;0.60;;
11283;SDS011;5698;47.332;11.180;2023-03-26T05:23:11;1.07;;;0.80;;
11283;SDS011;5698;47.332;11.180;2023-03-26T05:25:38;0.60;;;0.60;;
11283;SDS011;5698;47.332;11.180;2023-03-26T05:28:05;0.80;;;0.70;;
11283;SDS011;5698;47.332;11.180;2023-03-26T05:30:32;0.90;;;0.70;;
11283;SDS011;5698;47.332;11.180;2023-03-26T05:32:59;1.57;;;0.57;;
11283;SDS011;5698;47.332;11.180;2023-03-26T05:35:28;1.93;;;0.70;;
11283;SDS011;5698;47.332;11.180;2023-03-26T05:37:55;0.63;;;0.60;;
11283;SDS011;5698;47.332;11.180;2023-03-26T05:40:23;0.80;;;0.80;;
11283;SDS011;5698;47.332;11.180;2023-03-26T05:42:50;0.80;;;0.70;;
11283;SDS011;5698;47.332;11.180;2023-03-26T05:45:17;0.80;;;0.80;;
11283;SDS011;5698;47.332;11.180;2023-03-26T05:47:44;1.00;;;0.60;;
11283;SDS011;5698;47.332;11.180;2023-03-26T05:50:11;0.63;;;0.60;;
11283;SDS011;5698;47.332;11.180;2023-03-26T05:52:40;0.93;;;0.60;;
11283;SDS011;5698;47.332;11.180;2023-03-26T05:55:08;6.70;;;3.27;;
11283;SDS011;5698;47.332;11.180;2023-03-26T05:57:35;5.23;;;2.53;;
11283;SDS011;5698;47.332;11.180;2023-03-26T06:00:03;5.10;;;2.87;;
11283;SDS011;5698;47.332;11.180;2023-03-26T06:02:35;3.77;;;2.20;;
11283;SDS011;5698;47.332;11.180;2023-03-26T06:05:02;3.67;;;2.50;;
11283;SDS011;5698;47.332;11.180;2023-03-26T06:07:29;4.73;;;2.20;;
11283;SDS011;5698;47.332;11.180;2023-03-26T06:09:59;2.13;;;1.40;;
11283;SDS011;5698;47.332;11.180;2023-03-26T06:12:26;3.63;;;1.67;;
11283;SDS011;5698;47.332;11.180;2023-03-26T06:14:53;1.40;;;1.23;;
11283;SDS011;5698;47.332;11.180;2023-03-26T06:17:20;1.73;;;1.30;;
11283;SDS011;5698;47.332;11.180;2023-03-26T06:19:47;1.33;;;0.70;;
11283;SDS011;5698;47.332;11.180;2023-03-26T06:22:14;1.17;;;1.00;;
11283;SDS011;5698;47.332;11.180;2023-03-26T06:24:41;0.97;;;0.87;;
11283;SDS011;5698;47.332;11.180;2023-03-26T06:27:09;0.93;;;0.80;;
11283;SDS011;5698;47.332;11.180;2023-03-26T06:29:36;1.67;;;1.10;;
11283;SDS011;5698;47.332;11.180;2023-03-26T06:32:03;2.23;;;0.90;;
11283;SDS011;5698;47.332;11.180;2023-03-26T06:34:30;0.80;;;0.80;;
11283;SDS011;5698;47.332;11.180;2023-03-26T06:36:57;1.17;;;0.80;;
11283;SDS011;5698;47.332;11.180;2023-03-26T06:39:24;0.77;;;0.77;;
11283;SDS011;5698;47.332;11.180;2023-03-26T06:41:52;1.73;;;0.90;;
11283;SDS011;5698;47.332;11.180;2023-03-26T06:44:20;2.53;;;1.00;;
11283;SDS011;5698;47.332;11.180;2023-03-26T06:46:47;0.97;;;0.73;;
11283;SDS011;5698;47.332;11.180;2023-03-26T06:49:14;1.30;;;0.57;;
11283;SDS011;5698;47.332;11.180;2023-03-26T06:51:41;0.70;;;0.50;;
11283;SDS011;5698;47.332;11.180;2023-03-26T06:54:08;0.70;;;0.70;;
11283;SDS011;5698;47.332;11.180;2023-03-26T06:56:35;0.60;;;0.60;;
11283;SDS011;5698;47.332;11.180;2023-03-26T06:59:02;2.37;;;0.70;;
11283;SDS011;5698;47.332;11.180;2023-03-26T07:01:30;1.27;;;0.77;;
11283;SDS011;5698;47.332;11.180;2023-03-26T07:03:57;0.90;;;0.70;;
11283;SDS011;5698;47.332;11.180;2023-03-26T07:06:24;1.50;;;1.00;;
11283;SDS011;5698;47.332;11.180;2023-03-26T07:08:51;1.33;;;0.90;;
11283;SDS011;5698;47.332;11.180;2023-03-26T07:11:19;1.90;;;0.60;;
11283;SDS011;5698;47.332;11.180;2023-03-26T07:13:49;1.27;;;1.10;;
11283;SDS011;5698;47.332;11.180;2023-03-26T07:16:16;0.60;;;0.60;;
11283;SDS011;5698;47.332;11.180;2023-03-26T07:18:44;0.63;;;0.63;;
11283;SDS011;5698;47.332;11.180;2023-03-26T07:21:12;0.60;;;0.60;;
11283;SDS011;5698;47.332;11.180;2023-03-26T07:23:39;0.67;;;0.60;;
11283;SDS011;5698;47.332;11.180;2023-03-26T07:26:17;0.70;;;0.70;;
11283;SDS011;5698;47.332;11.180;2023-03-26T07:28:51;0.77;;;0.70;;
11283;SDS011;5698;47.332;11.180;2023-03-26T07:31:26;0.50;;;0.47;;
11283;SDS011;5698;47.332;11.180;2023-03-26T07:34:02;0.60;;;0.60;;
11283;SDS011;5698;47.332;11.180;2023-03-26T07:36:38;0.97;;;0.60;;
11283;SDS011;5698;47.332;11.180;2023-03-26T07:39:15;1.03;;;0.70;;
11283;SDS011;5698;47.332;11.180;2023-03-26T07:41:53;0.77;;;0.50;;
11283;SDS011;5698;47.332;11.180;2023-03-26T07:44:30;1.87;;;0.70;;
11283;SDS011;5698;47.332;11.180;2023-03-26T07:47:08;0.80;;;0.63;;
11283;SDS011;5698;47.332;11.180;2023-03-26T07:49:48;1.83;;;0.43;;
11283;SDS011;5698;47.332;11.180;2023-03-26T07:52:16;0.60;;;0.57;;
11283;SDS011;5698;47.332;11.180;2023-03-26T07:54:43;1.47;;;0.70;;
11283;SDS011;5698;47.332;11.180;2023-03-26T07:57:12;0.90;;;0.63;;
11283;SDS011;5698;47.332;11.180;2023-03-26T07:59:44;1.13;;;0.60;;
11283;SDS011;5698;47.332;11.180;2023-03-26T08:02:23;0.87;;;0.60;;
11283;SDS011;5698;47.332;11.180;2023-03-26T08:05:06;0.40;;;0.40;;
11283;SDS011;5698;47.332;11.180;2023-03-26T08:07:48;0.60;;;0.60;;
11283;SDS011;5698;47.332;11.180;2023-03-26T08:10:25;0.60;;;0.60;;
11283;SDS011;5698;47.332;11.180;2023-03-26T08:12:57;1.37;;;0.90;;
11283;SDS011;5698;47.332;11.180;2023-03-26T08:15:29;0.67;;;0.50;;
11283;SDS011;5698;47.332;11.180;2023-03-26T08:18:02;0.50;;;0.50;;
11283;SDS011;5698;47.332;11.180;2023-03-26T08:20:43;0.57;;;0.57;;
11283;SDS011;5698;47.332;11.180;2023-03-26T08:23:14;1.00;;;0.50;;
11283;SDS011;5698;47.332;11.180;2023-03-26T08:25:49;0.73;;;0.73;;
11283;SDS011;5698;47.332;11.180;2023-03-26T08:28:26;0.90;;;0.70;;
11283;SDS011;5698;47.332;11.180;2023-03-26T08:31:03;1.87;;;0.60;;
11283;SDS011;5698;47.332;11.180;2023-03-26T08:33:32;0.80;;;0.73;;
11283;SDS011;5698;47.332;11.180;2023-03-26T08:36:01;0.53;;;0.50;;
11283;SDS011;5698;47.332;11.180;2023-03-26T08:38:29;1.33;;;0.50;;
11283;SDS011;5698;47.332;11.180;2023-03-26T08:41:05;0.50;;;0.50;;
11283;SDS011;5698;47.332;11.180;2023-03-26T08:44:02;2.30;;;0.67;;
11283;SDS011;5698;47.332;11.180;2023-03-26T08:46:56;1.10;;;0.40;;
11283;SDS011;5698;47.332;11.180;2023-03-26T08:49:48;0.80;;;0.80;;
11283;SDS011;5698;47.332;11.180;2023-03-26T08:55:51;0.50;;;0.50;;
11283;SDS011;5698;47.332;11.180;2023-03-26T09:07:34;1.50;;;0.90;;
11283;SDS011;5698;47.332;11.180;2023-03-26T09:13:31;0.63;;;0.63;;
11283;SDS011;5698;47.332;11.180;2023-03-26T09:16:26;0.80;;;0.70;;
11283;SDS011;5698;47.332;11.180;2023-03-26T09:19:19;1.87;;;0.67;;
11283;SDS011;5698;47.332;11.180;2023-03-26T09:22:14;4.97;;;3.43;;
11283;SDS011;5698;47.332;11.180;2023-03-26T09:28:14;1.40;;;1.20;;
11283;SDS011;5698;47.332;11.180;2023-03-26T09:31:06;2.57;;;2.30;;
11283;SDS011;5698;47.332;11.180;2023-03-26T09:33:51;1.50;;;0.90;;
11283;SDS011;5698;47.332;11.180;2023-03-26T09:36:46;2.20;;;1.30;;
11283;SDS011;5698;47.332;11.180;2023-03-26T09:39:25;4.13;;;1.40;;
11283;SDS011;5698;47.332;11.180;2023-03-26T09:42:05;1.60;;;1.10;;
11283;SDS011;5698;47.332;11.180;2023-03-26T09:44:43;1.70;;;0.60;;
11283;SDS011;5698;47.332;11.180;2023-03-26T09:47:49;1.10;;;0.90;;
11283;SDS011;5698;47.332;11.180;2023-03-26T09:50:34;2.23;;;1.40;;
11283;SDS011;5698;47.332;11.180;2023-03-26T09:53:17;1.57;;;1.07;;
11283;SDS011;5698;47.332;11.180;2023-03-26T09:56:11;1.33;;;0.83;;
11283;SDS011;5698;47.332;11.180;2023-03-26T10:01:49;0.90;;;0.83;;
11283;SDS011;5698;47.332;11.180;2023-03-26T10:04:35;0.57;;;0.53;;
11283;SDS011;5698;47.332;11.180;2023-03-26T10:07:11;1.60;;;0.60;;
11283;SDS011;5698;47.332;11.180;2023-03-26T10:09:55;0.50;;;0.50;;
11283;SDS011;5698;47.332;11.180;2023-03-26T10:12:29;1.17;;;0.60;;
11283;SDS011;5698;47.332;11.180;2023-03-26T10:15:01;0.50;;;0.50;;
11283;SDS011;5698;47.332;11.180;2023-03-26T10:17:51;0.50;;;0.40;;
11283;SDS011;5698;47.332;11.180;2023-03-26T10:20:27;2.10;;;0.80;;
11283;SDS011;5698;47.332;11.180;2023-03-26T10:25:56;1.70;;;1.20;;
11283;SDS011;5698;47.332;11.180;2023-03-26T10:28:37;1.50;;;1.20;;
11283;SDS011;5698;47.332;11.180;2023-03-26T10:31:29;2.10;;;1.90;;
11283;SDS011;5698;47.332;11.180;2023-03-26T10:34:08;1.57;;;1.47;;
11283;SDS011;5698;47.332;11.180;2023-03-26T10:36:54;0.90;;;0.80;;
11283;SDS011;5698;47.332;11.180;2023-03-26T10:39:33;0.30;;;0.30;;
11283;SDS011;5698;47.332;11.180;2023-03-26T10:42:14;0.50;;;0.40;;
11283;SDS011;5698;47.332;11.180;2023-03-26T10:47:59;0.50;;;0.50;;
11283;SDS011;5698;47.332;11.180;2023-03-26T10:50:51;0.90;;;0.50;;
11283;SDS011;5698;47.332;11.180;2023-03-26T10:53:32;0.60;;;0.57;;
11283;SDS011;5698;47.332;11.180;2023-03-26T10:56:05;0.60;;;0.43;;
11283;SDS011;5698;47.332;11.180;2023-03-26T10:58:38;0.50;;;0.50;;
11283;SDS011;5698;47.332;11.180;2023-03-26T11:01:10;1.33;;;0.57;;
11283;SDS011;5698;47.332;11.180;2023-03-26T11:03:45;0.40;;;0.40;;
11283;SDS011;5698;47.332;11.180;2023-03-26T11:06:28;1.00;;;0.50;;
11283;SDS011;5698;47.332;11.180;2023-03-26T11:09:02;0.53;;;0.50;;
11283;SDS011;5698;47.332;11.180;2023-03-26T11:11:46;4.47;;;2.70;;
11283;SDS011;5698;47.332;11.180;2023-03-26T11:14:19;1.10;;;1.00;;
11283;SDS011;5698;47.332;11.180;2023-03-26T11:16:53;2.50;;;0.60;;
11283;SDS011;5698;47.332;11.180;2023-03-26T11:19:28;0.50;;;0.50;;
11283;SDS011;5698;47.332;11.180;2023-03-26T11:22:02;1.10;;;0.70;;
11283;SDS011;5698;47.332;11.180;2023-03-26T11:27:39;0.87;;;0.50;;
11283;SDS011;5698;47.332;11.180;2023-03-26T11:30:18;0.53;;;0.50;;
11283;SDS011;5698;47.332;11.180;2023-03-26T11:32:50;0.57;;;0.57;;
11283;SDS011;5698;47.332;11.180;2023-03-26T11:35:22;0.43;;;0.43;;
11283;SDS011;5698;47.332;11.180;2023-03-26T11:37:54;0.50;;;0.47;;
11283;SDS011;5698;47.332;11.180;2023-03-26T11:40:28;0.80;;;0.50;;
11283;SDS011;5698;47.332;11.180;2023-03-26T11:42:59;0.70;;;0.60;;
11283;SDS011;5698;47.332;11.180;2023-03-26T11:45:29;0.73;;;0.50;;
11283;SDS011;5698;47.332;11.180;2023-03-26T11:48:01;0.90;;;0.50;;
11283;SDS011;5698;47.332;11.180;2023-03-26T11:50:33;0.40;;;0.40;;
11283;SDS011;5698;47.332;11.180;2023-03-26T11:53:09;0.73;;;0.50;;
11283;SDS011;5698;47.332;11.180;2023-03-26T11:55:41;0.50;;;0.50;;
11283;SDS011;5698;47.332;11.180;2023-03-26T11:58:21;0.67;;;0.50;;
11283;SDS011;5698;47.332;11.180;2023-03-26T12:00:54;0.57;;;0.50;;
11283;SDS011;5698;47.332;11.180;2023-03-26T12:03:21;1.10;;;0.90;;
11283;SDS011;5698;47.332;11.180;2023-03-26T12:05:49;0.50;;;0.50;;
11283;SDS011;5698;47.332;11.180;2023-03-26T12:08:26;0.60;;;0.50;;
11283;SDS011;5698;47.332;11.180;2023-03-26T12:11:04;0.80;;;0.80;;
11283;SDS011;5698;47.332;11.180;2023-03-26T12:13:36;0.50;;;0.50;;
11283;SDS011;5698;47.332;11.180;2023-03-26T12:16:10;0.57;;;0.50;;
11283;SDS011;5698;47.332;11.180;2023-03-26T12:18:40;2.30;;;2.10;;
11283;SDS011;5698;47.332;11.180;2023-03-26T12:21:09;4.90;;;3.80;;
11283;SDS011;5698;47.332;11.180;2023-03-26T12:23:49;17.13;;;11.97;;
11283;SDS011;5698;47.332;11.180;2023-03-26T12:26:28;22.27;;;14.63;;
11283;SDS011;5698;47.332;11.180;2023-03-26T12:29:03;9.77;;;6.67;;
11283;SDS011;5698;47.332;11.180;2023-03-26T12:31:41;6.00;;;3.73;;
11283;SDS011;5698;47.332;11.180;2023-03-26T12:34:14;1.23;;;0.80;;
11283;SDS011;5698;47.332;11.180;2023-03-26T12:36:46;3.17;;;1.60;;
11283;SDS011;5698;47.332;11.180;2023-03-26T12:39:25;2.10;;;1.40;;
11283;SDS011;5698;47.332;11.180;2023-03-26T12:41:59;1.30;;;1.00;;
11283;SDS011;5698;47.332;11.180;2023-03-26T12:44:28;1.40;;;0.80;;
11283;SDS011;5698;47.332;11.180;2023-03-26T12:47:09;0.70;;;0.50;;
11283;SDS011;5698;47.332;11.180;2023-03-26T12:49:40;1.50;;;1.40;;
11283;SDS011;5698;47.332;11.180;2023-03-26T12:52:15;3.43;;;2.80;;
11283;SDS011;5698;47.332;11.180;2023-03-26T12:54:52;10.90;;;7.90;;
11283;SDS011;5698;47.332;11.180;2023-03-26T12:57:26;4.97;;;3.23;;
11283;SDS011;5698;47.332;11.180;2023-03-26T13:03:24;12.20;;;8.63;;
11283;SDS011;5698;47.332;11.180;2023-03-26T13:06:09;4.43;;;2.97;;
11283;SDS011;5698;47.332;11.180;2023-03-26T13:09:01;3.77;;;2.73;;
11283;SDS011;5698;47.332;11.180;2023-03-26T13:11:49;14.43;;;10.33;;
11283;SDS011;5698;47.332;11.180;2023-03-26T13:14:46;5.77;;;4.43;;
11283;SDS011;5698;47.332;11.180;2023-03-26T13:17:25;3.60;;;1.80;;
11283;SDS011;5698;47.332;11.180;2023-03-26T13:20:00;2.67;;;2.43;;
11283;SDS011;5698;47.332;11.180;2023-03-26T13:22:34;1.83;;;1.37;;
11283;SDS011;5698;47.332;11.180;2023-03-26T13:25:09;5.07;;;3.33;;
11283;SDS011;5698;47.332;11.180;2023-03-26T13:27:49;4.97;;;3.73;;
11283;SDS011;5698;47.332;11.180;2023-03-26T13:30:30;6.03;;;4.43;;
11283;SDS011;5698;47.332;11.180;2023-03-26T13:33:20;9.83;;;7.00;;
11283;SDS011;5698;47.332;11.180;2023-03-26T13:35:58;1.60;;;1.50;;
11283;SDS011;5698;47.332;11.180;2023-03-26T13:38:33;7.87;;;6.20;;
11283;SDS011;5698;47.332;11.180;2023-03-26T13:41:10;20.73;;;14.13;;
11283;SDS011;5698;47.332;11.180;2023-03-26T13:43:49;7.63;;;5.10;;
11283;SDS011;5698;47.332;11.180;2023-03-26T13:46:28;3.67;;;2.37;;
11283;SDS011;5698;47.332;11.180;2023-03-26T13:49:00;1.13;;;1.00;;
11283;SDS011;5698;47.332;11.180;2023-03-26T13:51:36;0.70;;;0.70;;
11283;SDS011;5698;47.332;11.180;2023-03-26T13:54:15;0.80;;;0.80;;
11283;SDS011;5698;47.332;11.180;2023-03-26T13:56:48;0.83;;;0.83;;
11283;SDS011;5698;47.332;11.180;2023-03-26T13:59:21;1.13;;;0.87;;
11283;SDS011;5698;47.332;11.180;2023-03-26T14:01:57;2.40;;;1.50;;
11283;SDS011;5698;47.332;11.180;2023-03-26T14:04:31;1.90;;;1.80;;
11283;SDS011;5698;47.332;11.180;2023-03-26T14:07:03;1.23;;;1.10;;
11283;SDS011;5698;47.332;11.180;2023-03-26T14:09:35;0.90;;;0.80;;
11283;SDS011;5698;47.332;11.180;2023-03-26T14:14:57;0.80;;;0.77;;
11283;SDS011;5698;47.332;11.180;2023-03-26T14:17:32;0.70;;;0.70;;
11283;SDS011;5698;47.332;11.180;2023-03-26T14:22:56;1.20;;;1.00;;
11283;SDS011;5698;47.332;11.180;2023-03-26T14:25:43;8.53;;;5.00;;
11283;SDS011;5698;47.332;11.180;2023-03-26T14:28:37;11.07;;;5.97;;
11283;SDS011;5698;47.332;11.180;2023-03-26T14:31:32;5.50;;;3.53;;
11283;SDS011;5698;47.332;11.180;2023-03-26T14:34:13;1.30;;;1.10;;
11283;SDS011;5698;47.332;11.180;2023-03-26T14:39:53;1.00;;;0.80;;
11283;SDS011;5698;47.332;11.180;2023-03-26T14:42:41;10.50;;;6.43;;
11283;SDS011;5698;47.332;11.180;2023-03-26T14:45:22;5.57;;;3.57;;
11283;SDS011;5698;47.332;11.180;2023-03-26T14:48:25;1.50;;;1.20;;
11283;SDS011;5698;47.332;11.180;2023-03-26T14:51:16;1.20;;;1.10;;
11283;SDS011;5698;47.332;11.180;2023-03-26T14:53:54;1.70;;;0.80;;
11283;SDS011;5698;47.332;11.180;2023-03-26T14:59:47;1.00;;;0.90;;
11283;SDS011;5698;47.332;11.180;2023-03-26T15:09:24;0.80;;;0.80;;
11283;SDS011;5698;47.332;11.180;2023-03-26T15:12:15;0.90;;;0.63;;
11283;SDS011;5698;47.332;11.180;2023-03-26T15:15:00;0.70;;;0.50;;
11283;SDS011;5698;47.332;11.180;2023-03-26T15:21:28;1.90;;;1.03;;
11283;SDS011;5698;47.332;11.180;2023-03-26T15:27:23;0.60;;;0.60;;
11283;SDS011;5698;47.332;11.180;2023-03-26T15:30:27;2.53;;;1.10;;
11283;SDS011;5698;47.332;11.180;2023-03-26T15:33:20;2.20;;;1.37;;
11283;SDS011;5698;47.332;11.180;2023-03-26T15:42:40;0.67;;;0.67;;
11283;SDS011;5698;47.332;11.180;2023-03-26T15:45:19;1.20;;;0.80;;
11283;SDS011;5698;47.332;11.180;2023-03-26T15:47:57;1.43;;;0.50;;
11283;SDS011;5698;47.332;11.180;2023-03-26T15:50:56;0.50;;;0.50;;
11283;SDS011;5698;47.332;11.180;2023-03-26T15:53:33;0.53;;;0.53;;
11283;SDS011;5698;47.332;11.180;2023-03-26T15:56:11;1.13;;;0.70;;
11283;SDS011;5698;47.332;11.180;2023-03-26T15:58:50;1.23;;;0.50;;
11283;SDS011;5698;47.332;11.180;2023-03-26T16:01:31;1.43;;;0.53;;
11283;SDS011;5698;47.332;11.180;2023-03-26T16:04:14;0.57;;;0.50;;
11283;SDS011;5698;47.332;11.180;2023-03-26T16:06:51;0.80;;;0.60;;
11283;SDS011;5698;47.332;11.180;2023-03-26T16:12:24;0.70;;;0.70;;
11283;SDS011;5698;47.332;11.180;2023-03-26T16:15:12;0.57;;;0.53;;
11283;SDS011;5698;47.332;11.180;2023-03-26T16:20:44;0.60;;;0.60;;
11283;SDS011;5698;47.332;11.180;2023-03-26T16:23:18;0.60;;;0.60;;
11283;SDS011;5698;47.332;11.180;2023-03-26T16:25:58;0.67;;;0.40;;
11283;SDS011;5698;47.332;11.180;2023-03-26T16:29:03;0.53;;;0.50;;
11283;SDS011;5698;47.332;11.180;2023-03-26T16:31:41;0.50;;;0.50;;
11283;SDS011;5698;47.332;11.180;2023-03-26T16:34:36;0.53;;;0.50;;
11283;SDS011;5698;47.332;11.180;2023-03-26T16:40:27;1.20;;;1.10;;
11283;SDS011;5698;47.332;11.180;2023-03-26T16:43:13;0.80;;;0.80;;
11283;SDS011;5698;47.332;11.180;2023-03-26T16:45:54;0.60;;;0.60;;